Time;durP1;ratioP1;P1;durP2;ratioP2;P2;SDS_P1;SDS_P2;PMS_P1;PMS_P2;Temp;Humidity;BMP_temperature;BMP_pressure;BME280_temperature;BME280_humidity;BME280_pressure;Samples;Min_cycle;Max_cycle;Signal;HPM_P1;HPM_P2
2023/12/21 00:01:18;;;;;;;7.28;1.30;;;9.30;99.90;;;;;;5093818;28;20052;-64
2023/12/21 00:03:44;;;;;;;10.70;1.97;;;9.30;99.90;;;;;;5093712;28;20051;-63
2023/12/21 00:06:09;;;;;;;9.70;1.80;;;9.30;99.90;;;;;;5093576;28;20127;-63
2023/12/21 00:08:35;;;;;;;7.17;1.30;;;9.30;99.90;;;;;;5093555;28;20076;-63
2023/12/21 00:11:01;;;;;;;13.93;1.97;;;9.30;99.90;;;;;;5093828;28;20048;-64
2023/12/21 00:13:26;;;;;;;5.57;1.10;;;9.30;99.90;;;;;;5093703;28;20044;-64
2023/12/21 00:15:53;;;;;;;9.70;2.20;;;9.30;99.90;;;;;;5093678;28;20127;-63
2023/12/21 00:18:19;;;;;;;;;;;9.30;99.90;;;;;;5093956;28;20040;-62
2023/12/21 00:20:44;;;;;;;8.85;1.38;;;9.30;99.90;;;;;;5093858;28;20251;-63
2023/12/21 00:23:10;;;;;;;14.83;1.73;;;9.40;99.90;;;;;;5093755;28;20080;-63
2023/12/21 00:25:36;;;;;;;7.60;1.67;;;9.40;99.90;;;;;;5092434;28;20044;-62
2023/12/21 00:28:01;;;;;;;11.20;1.87;;;9.40;99.90;;;;;;5093497;28;20123;-63
2023/12/21 00:30:27;;;;;;;8.03;1.20;;;9.40;99.90;;;;;;5093492;28;20087;-62
2023/12/21 00:32:53;;;;;;;8.73;1.43;;;9.40;99.90;;;;;;5093524;28;20067;-63
2023/12/21 00:35:19;;;;;;;7.13;1.27;;;9.40;99.90;;;;;;5093355;28;20055;-62
2023/12/21 00:37:45;;;;;;;8.20;1.57;;;9.40;99.90;;;;;;5093469;28;20518;-63
2023/12/21 00:40:11;;;;;;;6.60;1.35;;;9.40;99.90;;;;;;5093477;28;20105;-64
2023/12/21 00:42:38;;;;;;;6.32;1.25;;;9.40;99.90;;;;;;5093340;28;20387;-61
2023/12/21 00:45:07;;;;;;;12.35;1.30;;;9.40;99.90;;;;;;5092313;28;20127;-62
2023/12/21 00:47:34;;;;;;;8.52;1.83;;;9.40;99.90;;;;;;5093148;28;20071;-62
2023/12/21 00:49:59;;;;;;;8.23;1.75;;;9.40;99.90;;;;;;5093254;28;20036;-63
2023/12/21 00:52:25;;;;;;;5.90;1.53;;;9.40;99.90;;;;;;5092556;28;20040;-62
2023/12/21 00:54:51;;;;;;;5.80;1.13;;;9.40;99.90;;;;;;5093454;28;20571;-64
2023/12/21 00:57:17;;;;;;;4.47;1.20;;;9.40;99.90;;;;;;5093699;28;20071;-62
2023/12/21 00:59:43;;;;;;;8.03;1.70;;;9.40;99.90;;;;;;5094225;28;20483;-62
2023/12/21 01:02:08;;;;;;;8.57;1.73;;;9.40;99.90;;;;;;5096960;28;20051;-62
2023/12/21 01:04:34;;;;;;;6.77;1.20;;;9.40;99.90;;;;;;5096989;28;20490;-62
2023/12/21 01:07:01;;;;;;;10.10;2.10;;;9.50;99.90;;;;;;5097068;28;20050;-62
2023/12/21 01:09:27;;;;;;;5.85;1.15;;;9.50;99.90;;;;;;5095992;28;20101;-62
2023/12/21 01:11:52;;;;;;;7.53;1.33;;;9.50;99.90;;;;;;5096949;28;20047;-63
2023/12/21 01:14:18;;;;;;;10.47;1.50;;;9.50;99.90;;;;;;5097127;28;20052;-62
2023/12/21 01:16:44;;;;;;;6.67;1.20;;;9.50;99.90;;;;;;5095626;28;20044;-63
2023/12/21 01:19:09;;;;;;;5.63;1.57;;;9.40;99.90;;;;;;5096374;28;20040;-66
2023/12/21 01:21:35;;;;;;;7.30;1.67;;;9.50;99.90;;;;;;5097176;28;20052;-62
2023/12/21 01:24:01;;;;;;;10.33;2.70;;;9.50;99.90;;;;;;5096706;28;20398;-63
2023/12/21 01:26:26;;;;;;;8.80;1.30;;;9.50;99.90;;;;;;5096685;28;20180;-63
2023/12/21 01:28:52;;;;;;;3.83;1.27;;;9.50;99.90;;;;;;5096637;28;20047;-63
2023/12/21 01:31:18;;;;;;;6.17;1.20;;;9.50;99.90;;;;;;5095157;28;20441;-62
2023/12/21 01:33:44;;;;;;;9.10;1.50;;;9.50;99.90;;;;;;5096260;28;20173;-62
2023/12/21 01:36:10;;;;;;;8.63;1.30;;;9.50;99.90;;;;;;5096610;28;20093;-63
2023/12/21 01:38:36;;;;;;;8.03;1.53;;;9.50;99.90;;;;;;5096480;28;20046;-63
2023/12/21 01:41:02;;;;;;;8.00;1.50;;;9.50;99.90;;;;;;5095383;28;20051;-63
2023/12/21 01:43:27;;;;;;;10.47;2.10;;;9.50;99.90;;;;;;5096334;28;20479;-63
2023/12/21 01:45:54;;;;;;;9.77;1.57;;;9.50;99.90;;;;;;5096286;28;20368;-62
2023/12/21 01:48:21;;;;;;;8.80;2.25;;;9.50;99.90;;;;;;5095007;28;20570;-63
2023/12/21 01:50:47;;;;;;;7.88;1.25;;;9.50;99.90;;;;;;5096126;28;20131;-64
2023/12/21 01:53:14;;;;;;;5.38;1.10;;;9.50;99.90;;;;;;5096123;28;20515;-62
2023/12/21 01:55:40;;;;;;;11.00;1.60;;;9.40;99.90;;;;;;5096191;28;20093;-63
2023/12/21 01:58:07;;;;;;;8.38;1.83;;;9.40;99.90;;;;;;5095873;28;20079;-62
2023/12/21 02:00:34;;;;;;;8.30;1.45;;;9.40;99.90;;;;;;5095918;28;20070;-62
2023/12/21 02:03:01;;;;;;;8.38;1.65;;;9.40;99.90;;;;;;5095854;28;20048;-62
2023/12/21 02:05:26;;;;;;;8.50;1.67;;;9.40;99.90;;;;;;5096404;28;20079;-62
2023/12/21 02:07:52;;;;;;;8.87;1.23;;;9.40;99.90;;;;;;5095990;28;20549;-63
2023/12/21 02:10:18;;;;;;;5.60;1.20;;;9.40;99.90;;;;;;5095491;28;20048;-63
2023/12/21 02:12:44;;;;;;;6.13;1.00;;;9.40;99.90;;;;;;5095738;28;20044;-62
2023/12/21 02:15:10;;;;;;;10.67;2.30;;;9.30;99.90;;;;;;5095733;28;20040;-63
2023/12/21 02:17:37;;;;;;;11.00;1.80;;;9.30;99.90;;;;;;5094583;28;20048;-63
2023/12/21 02:20:05;;;;;;;11.43;2.17;;;9.30;99.90;;;;;;5095107;28;20495;-63
2023/12/21 02:22:34;;;;;;;6.57;1.25;;;9.30;99.90;;;;;;5095610;28;20112;-62
2023/12/21 02:25:00;;;;;;;7.57;1.55;;;9.30;99.90;;;;;;5095926;28;20048;-63
2023/12/21 02:27:26;;;;;;;5.78;1.50;;;9.30;99.90;;;;;;5095529;28;20156;-63
2023/12/21 02:29:52;;;;;;;10.37;1.90;;;9.30;99.90;;;;;;5095550;28;20508;-65
2023/12/21 02:32:17;;;;;;;8.43;2.10;;;9.30;99.90;;;;;;5095393;28;20044;-62
2023/12/21 02:34:43;;;;;;;5.90;1.50;;;9.30;99.90;;;;;;5095508;28;20048;-64
2023/12/21 02:37:09;;;;;;;6.63;1.37;;;9.30;99.90;;;;;;5095347;28;20040;-62
2023/12/21 02:39:34;;;;;;;6.23;1.83;;;9.30;99.90;;;;;;5095173;28;20040;-62
2023/12/21 02:42:00;;;;;;;4.57;1.17;;;9.30;99.90;;;;;;5095306;28;20078;-63
2023/12/21 02:44:26;;;;;;;8.40;1.53;;;9.30;99.90;;;;;;5095150;28;20048;-64
2023/12/21 02:46:51;;;;;;;8.43;1.70;;;9.30;99.90;;;;;;5095060;28;20048;-63
2023/12/21 02:49:17;;;;;;;6.00;1.60;;;9.30;99.90;;;;;;5095104;28;20044;-64
2023/12/21 02:51:43;;;;;;;9.00;1.50;;;9.30;99.90;;;;;;5094525;28;20093;-62
2023/12/21 02:54:09;;;;;;;4.53;1.57;;;9.30;99.90;;;;;;5095040;28;20402;-63
2023/12/21 02:56:34;;;;;;;7.60;1.53;;;9.30;99.90;;;;;;5095055;28;20437;-63
2023/12/21 02:59:00;;;;;;;5.13;1.70;;;9.30;99.90;;;;;;5094831;28;20040;-62
2023/12/21 03:01:25;;;;;;;4.60;1.30;;;9.30;99.90;;;;;;5094743;28;20044;-63
2023/12/21 03:03:52;;;;;;;11.10;2.17;;;9.30;99.90;;;;;;5094851;28;20044;-65
2023/12/21 03:06:17;;;;;;;9.88;1.70;;;9.30;99.90;;;;;;5093783;28;20055;-68
2023/12/21 03:08:43;;;;;;;3.57;1.30;;;9.30;99.90;;;;;;5094996;28;20048;-63
2023/12/21 03:11:09;;;;;;;8.57;2.03;;;9.30;99.90;;;;;;5094600;28;20524;-64
2023/12/21 03:13:34;;;;;;;5.57;1.20;;;9.30;99.90;;;;;;5094518;28;20043;-63
2023/12/21 03:16:05;;;;;;;6.00;2.23;;;9.30;99.90;;;;;;5094443;28;20177;-64
2023/12/21 03:18:30;;;;;;;4.88;1.67;;;9.30;99.90;;;;;;5094807;28;20050;-66
2023/12/21 03:20:57;;;;;;;4.30;1.30;;;9.30;99.90;;;;;;5094245;28;20465;-64
2023/12/21 03:23:23;;;;;;;4.90;1.42;;;9.30;99.90;;;;;;5093657;28;20457;-63
2023/12/21 03:25:49;;;;;;;7.37;1.47;;;9.30;99.90;;;;;;5094403;28;20051;-64
2023/12/21 03:28:15;;;;;;;3.10;1.17;;;9.30;99.90;;;;;;5094478;28;20047;-64
2023/12/21 03:30:43;;;;;;;5.53;1.63;;;9.20;99.90;;;;;;5094153;28;20056;-63
2023/12/21 03:33:09;;;;;;;6.30;1.80;;;9.30;99.90;;;;;;5094333;28;20086;-63
2023/12/21 03:35:35;;;;;;;5.10;1.40;;;9.20;99.90;;;;;;5094586;28;20399;-64
2023/12/21 03:38:00;;;;;;;5.57;1.50;;;9.20;99.90;;;;;;5094277;28;20671;-63
2023/12/21 03:40:26;;;;;;;7.80;1.37;;;9.30;99.90;;;;;;5094314;28;20399;-63
2023/12/21 03:42:52;;;;;;;8.23;1.50;;;9.20;99.90;;;;;;5094086;28;20398;-63
2023/12/21 03:45:19;;;;;;;5.80;1.70;;;9.30;99.90;;;;;;5094015;28;20044;-64
2023/12/21 03:47:45;;;;;;;8.18;2.17;;;9.30;99.90;;;;;;5094061;28;20449;-63
2023/12/21 03:50:11;;;;;;;8.20;2.33;;;9.30;99.90;;;;;;5094066;28;20079;-63
2023/12/21 03:52:36;;;;;;;6.00;1.40;;;9.30;99.90;;;;;;5094113;28;20431;-64
2023/12/21 03:55:02;;;;;;;6.67;1.90;;;9.30;99.90;;;;;;5093978;28;20278;-64
2023/12/21 03:57:28;;;;;;;5.53;1.47;;;9.30;99.90;;;;;;5093854;28;20051;-64
2023/12/21 03:59:54;;;;;;;8.57;1.80;;;9.30;99.90;;;;;;5092410;28;20302;-64
2023/12/21 04:02:19;;;;;;;7.73;1.80;;;9.30;99.90;;;;;;5093845;28;20077;-63
2023/12/21 04:04:45;;;;;;;9.97;1.60;;;9.30;99.90;;;;;;5094345;28;20044;-63
2023/12/21 04:07:10;;;;;;;7.57;2.53;;;9.30;99.90;;;;;;5093824;28;20086;-64
2023/12/21 04:09:36;;;;;;;7.40;1.70;;;9.30;99.90;;;;;;5093615;28;20043;-67
2023/12/21 04:12:02;;;;;;;6.60;1.40;;;9.30;99.90;;;;;;5093671;28;20185;-64
2023/12/21 04:14:27;;;;;;;10.33;1.70;;;9.30;99.90;;;;;;5093602;28;20055;-65
2023/12/21 04:16:53;;;;;;;4.40;1.43;;;9.30;99.90;;;;;;5092542;28;20059;-66
2023/12/21 04:19:19;;;;;;;4.77;1.77;;;9.30;99.90;;;;;;5093637;28;20044;-64
2023/12/21 04:21:44;;;;;;;10.90;1.67;;;9.30;99.90;;;;;;5093252;28;20073;-69
2023/12/21 04:24:10;;;;;;;4.80;1.40;;;9.30;99.90;;;;;;5092389;28;20056;-66
2023/12/21 04:26:36;;;;;;;6.43;1.77;;;9.30;99.90;;;;;;5093585;28;20044;-63
2023/12/21 04:29:02;;;;;;;7.17;1.53;;;9.30;99.90;;;;;;5093497;28;20047;-63
2023/12/21 04:31:27;;;;;;;4.23;1.57;;;9.30;99.90;;;;;;5093698;28;20441;-64
2023/12/21 04:33:53;;;;;;;7.10;1.40;;;9.30;99.90;;;;;;5094779;28;20282;-63
2023/12/21 04:36:19;;;;;;;8.43;2.30;;;9.30;99.90;;;;;;5097815;28;20134;-66
2023/12/21 04:38:45;;;;;;;4.35;1.40;;;9.30;99.90;;;;;;5096362;28;20040;-68
2023/12/21 04:41:10;;;;;;;4.93;1.37;;;9.20;99.90;;;;;;5096440;28;20096;-64
2023/12/21 04:43:36;;;;;;;9.10;2.13;;;9.30;99.90;;;;;;5097357;28;20043;-65
2023/12/21 04:46:04;;;;;;;9.77;2.17;;;9.30;99.90;;;;;;5097561;28;20044;-68
2023/12/21 04:48:29;;;;;;;5.03;1.38;;;9.30;99.90;;;;;;5097520;28;20132;-64
2023/12/21 04:50:56;;;;;;;5.93;1.63;;;9.30;99.90;;;;;;5097662;28;20105;-68
2023/12/21 04:53:21;;;;;;;9.07;1.67;;;9.30;99.90;;;;;;5096279;28;20115;-69
2023/12/21 04:55:48;;;;;;;3.30;1.37;;;9.30;99.90;;;;;;5097120;28;20123;-71
2023/12/21 04:58:14;;;;;;;;;;;9.30;99.90;;;;;;5097546;28;20044;-67
2023/12/21 05:00:40;;;;;;;5.53;1.10;;;9.30;99.90;;;;;;5096334;28;19920;-71
2023/12/21 05:03:06;;;;;;;3.80;1.20;;;9.30;99.90;;;;;;5097227;28;20044;-69
2023/12/21 05:05:32;;;;;;;2.70;1.03;;;9.30;99.90;;;;;;5097224;28;20055;-68
2023/12/21 05:07:57;;;;;;;4.40;1.20;;;9.30;99.90;;;;;;5097114;28;20398;-70
2023/12/21 05:10:23;;;;;;;4.50;1.27;;;9.30;99.90;;;;;;5096851;28;20522;-67
2023/12/21 05:12:49;;;;;;;7.70;1.37;;;9.30;99.90;;;;;;5096966;28;20078;-70
2023/12/21 05:15:15;;;;;;;4.68;1.00;;;9.30;99.90;;;;;;5097113;28;20048;-70
2023/12/21 05:17:40;;;;;;;7.13;1.40;;;9.30;99.90;;;;;;5096975;28;20483;-72
2023/12/21 05:20:08;;;;;;;6.55;1.45;;;9.30;99.90;;;;;;5096960;28;20511;-71
2023/12/21 05:22:33;;;;;;;6.35;1.52;;;9.30;99.90;;;;;;5096625;28;20135;-66
2023/12/21 05:24:59;;;;;;;4.33;1.80;;;9.30;99.90;;;;;;5095636;28;20091;-64
2023/12/21 05:27:26;;;;;;;7.73;1.97;;;9.30;99.90;;;;;;5096477;28;20098;-70
2023/12/21 05:29:51;;;;;;;7.55;1.65;;;9.30;99.90;;;;;;5096689;28;20044;-68
2023/12/21 05:32:17;;;;;;;7.00;1.40;;;9.30;99.90;;;;;;5096661;28;20478;-70
2023/12/21 05:34:43;;;;;;;8.63;1.57;;;9.30;99.90;;;;;;5096556;28;20380;-70
2023/12/21 05:37:08;;;;;;;6.40;1.53;;;9.30;99.90;;;;;;5096601;28;20063;-68
2023/12/21 05:39:35;;;;;;;5.00;1.60;;;9.30;99.90;;;;;;5096188;28;20040;-66
2023/12/21 05:42:01;;;;;;;3.90;1.17;;;9.30;99.90;;;;;;5096416;28;20403;-71
2023/12/21 05:44:26;;;;;;;9.63;1.88;;;9.30;99.90;;;;;;5096430;28;20040;-70
2023/12/21 05:46:52;;;;;;;7.07;1.43;;;9.30;99.90;;;;;;5095576;28;20048;-67
2023/12/21 05:49:18;;;;;;;7.17;2.43;;;9.30;99.90;;;;;;5096383;28;20040;-69
2023/12/21 05:51:43;;;;;;;6.93;1.57;;;9.30;99.90;;;;;;5096432;28;20475;-70
2023/12/21 05:54:09;;;;;;;7.43;1.27;;;9.30;99.90;;;;;;5096264;28;20044;-69
2023/12/21 05:56:36;;;;;;;7.03;1.83;;;9.30;99.90;;;;;;5095919;28;20132;-69
2023/12/21 05:59:01;;;;;;;6.70;1.60;;;9.30;99.90;;;;;;5096265;28;20048;-69
2023/12/21 06:01:27;;;;;;;5.57;1.47;;;9.30;99.90;;;;;;5096054;28;20093;-70
2023/12/21 06:03:53;;;;;;;5.80;1.30;;;9.30;99.90;;;;;;5095107;28;20055;-69
2023/12/21 06:06:19;;;;;;;5.30;1.33;;;9.30;99.90;;;;;;5096061;28;20051;-67
2023/12/21 06:08:45;;;;;;;6.80;1.35;;;9.30;99.90;;;;;;5094600;28;20046;-69
2023/12/21 06:11:10;;;;;;;7.50;1.00;;;9.30;99.90;;;;;;5094481;28;20473;-69
2023/12/21 06:13:36;;;;;;;3.87;1.00;;;9.30;99.90;;;;;;5096129;28;20051;-68
2023/12/21 06:16:02;;;;;;;4.30;0.80;;;9.30;99.90;;;;;;5095838;28;20048;-63
2023/12/21 06:18:27;;;;;;;4.17;1.00;;;9.30;99.90;;;;;;5095827;28;20450;-68
2023/12/21 06:20:53;;;;;;;9.70;1.43;;;9.30;99.90;;;;;;5095787;28;20059;-67
2023/12/21 06:23:19;;;;;;;5.73;1.33;;;9.30;99.90;;;;;;5095819;28;20558;-68
2023/12/21 06:25:45;;;;;;;10.47;1.93;;;9.30;99.90;;;;;;5095434;28;20044;-67
2023/12/21 06:28:10;;;;;;;6.17;1.43;;;9.40;99.90;;;;;;5094397;28;20391;-68
2023/12/21 06:30:36;;;;;;;10.97;1.27;;;9.40;99.90;;;;;;5095586;28;20080;-66
2023/12/21 06:33:02;;;;;;;2.73;1.10;;;9.40;99.90;;;;;;5095434;28;20491;-67
2023/12/21 06:35:28;;;;;;;9.65;1.38;;;9.40;99.90;;;;;;5095408;28;20050;-67
2023/12/21 06:37:53;;;;;;;8.90;1.30;;;9.40;99.90;;;;;;5095220;28;20131;-68
2023/12/21 06:40:19;;;;;;;7.10;1.80;;;9.40;99.90;;;;;;5095122;28;20056;-70
2023/12/21 06:42:45;;;;;;;9.50;2.07;;;9.40;99.90;;;;;;5094314;28;20055;-69
2023/12/21 06:45:11;;;;;;;6.60;1.10;;;9.40;99.90;;;;;;5095053;28;20069;-67
2023/12/21 06:47:37;;;;;;;3.30;0.93;;;9.40;99.90;;;;;;5095250;28;20082;-68
2023/12/21 06:50:04;;;;;;;5.10;0.95;;;9.40;99.90;;;;;;5095125;28;20605;-67
2023/12/21 06:52:30;;;;;;;4.60;1.00;;;9.50;99.90;;;;;;5095024;28;20130;-69
2023/12/21 06:54:56;;;;;;;5.40;1.03;;;9.40;99.90;;;;;;5094064;28;20083;-61
2023/12/21 06:57:23;;;;;;;7.03;1.42;;;9.50;99.90;;;;;;5092689;28;20047;-67
2023/12/21 06:59:49;;;;;;;4.95;1.20;;;9.50;99.90;;;;;;5094894;28;20048;-66
2023/12/21 07:02:14;;;;;;;3.85;0.80;;;9.50;99.90;;;;;;5094649;28;20491;-64
2023/12/21 07:04:40;;;;;;;6.53;0.90;;;9.50;99.90;;;;;;5094813;28;20050;-69
2023/12/21 07:07:06;;;;;;;4.03;0.83;;;9.50;99.90;;;;;;5094852;28;20123;-67
2023/12/21 07:09:32;;;;;;;3.10;0.67;;;9.40;99.90;;;;;;5094506;28;20044;-65
2023/12/21 07:11:59;;;;;;;1.47;0.70;;;9.50;99.90;;;;;;5094875;28;20498;-60
2023/12/21 07:14:25;;;;;;;3.70;0.80;;;9.40;99.90;;;;;;5094671;28;20044;-64
2023/12/21 07:16:51;;;;;;;1.90;0.53;;;9.50;99.90;;;;;;5093719;28;20040;-61
2023/12/21 07:19:17;;;;;;;3.20;0.70;;;9.50;99.90;;;;;;5093298;28;20458;-64
2023/12/21 07:21:43;;;;;;;1.27;0.43;;;9.40;99.90;;;;;;5094464;28;20059;-62
2023/12/21 07:24:09;;;;;;;4.57;0.80;;;9.40;99.90;;;;;;5094473;28;20052;-61
2023/12/21 07:26:35;;;;;;;1.53;0.40;;;9.40;99.90;;;;;;5093409;28;20044;-59
2023/12/21 07:29:00;;;;;;;2.13;0.60;;;9.50;99.90;;;;;;5094421;28;20044;-61
2023/12/21 07:31:26;;;;;;;2.60;0.63;;;9.40;99.90;;;;;;5094505;28;20559;-62
2023/12/21 07:33:51;;;;;;;2.17;0.60;;;9.50;99.90;;;;;;5094273;28;20040;-61
2023/12/21 07:36:17;;;;;;;4.03;0.57;;;9.40;99.90;;;;;;5094298;28;20075;-62
2023/12/21 07:38:43;;;;;;;2.60;0.50;;;9.50;99.90;;;;;;5093184;28;20044;-62
2023/12/21 07:41:10;;;;;;;3.47;0.43;;;9.50;99.90;;;;;;5093940;28;20147;-63
2023/12/21 07:43:37;;;;;;;2.65;0.68;;;9.50;99.90;;;;;;5094551;28;20048;-64
2023/12/21 07:46:03;;;;;;;2.67;0.57;;;9.40;99.90;;;;;;5093955;28;20055;-60
2023/12/21 07:48:29;;;;;;;1.52;0.50;;;9.50;99.90;;;;;;5093844;28;20040;-61
2023/12/21 07:50:54;;;;;;;1.63;0.50;;;9.50;99.90;;;;;;5094044;28;20040;-62
2023/12/21 07:53:20;;;;;;;2.17;0.50;;;9.50;99.90;;;;;;5093880;28;20086;-61
2023/12/21 07:55:45;;;;;;;3.60;0.70;;;9.50;99.90;;;;;;5093720;28;20044;-64
2023/12/21 07:58:11;;;;;;;1.93;0.40;;;9.50;99.90;;;;;;5093170;28;20045;-61
2023/12/21 08:00:37;;;;;;;5.00;1.03;;;9.50;99.90;;;;;;5094005;28;20044;-61
2023/12/21 08:03:03;;;;;;;2.87;1.03;;;9.50;99.90;;;;;;5092609;28;20043;-62
2023/12/21 08:05:28;;;;;;;2.60;0.70;;;9.50;99.90;;;;;;5093901;28;20055;-60
2023/12/21 08:07:54;;;;;;;4.03;0.90;;;9.50;99.90;;;;;;5092843;28;20502;-62
2023/12/21 08:10:20;;;;;;;3.47;1.10;;;9.50;99.90;;;;;;5093348;28;20051;-61
2023/12/21 08:12:46;;;;;;;4.03;0.70;;;9.60;99.90;;;;;;5093874;28;20051;-58
2023/12/21 08:15:12;;;;;;;4.85;0.73;;;9.60;99.90;;;;;;5093816;28;20040;-61
2023/12/21 08:17:39;;;;;;;6.67;2.03;;;9.60;99.90;;;;;;5093872;28;20044;-62
2023/12/21 08:20:05;;;;;;;5.72;0.95;;;9.60;99.90;;;;;;5093566;28;20099;-61
2023/12/21 08:22:31;;;;;;;5.78;1.30;;;9.60;99.90;;;;;;5093789;28;20483;-60
2023/12/21 08:24:58;;;;;;;6.20;1.50;;;9.60;99.90;;;;;;5092362;28;20055;-61
2023/12/21 08:27:24;;;;;;;;;;;9.60;99.90;;;;;;5094703;28;20044;-62
2023/12/21 08:29:50;;;;;;;10.32;1.40;;;9.60;99.90;;;;;;5093768;28;20434;-62
2023/12/21 08:32:18;;;;;;;6.53;1.30;;;9.60;99.90;;;;;;5093673;28;20048;-62
2023/12/21 08:34:44;;;;;;;6.63;1.25;;;9.70;99.90;;;;;;5093577;28;20547;-64
2023/12/21 08:37:10;;;;;;;7.15;1.40;;;9.70;99.90;;;;;;5093477;28;20487;-62
2023/12/21 08:39:36;;;;;;;7.93;1.50;;;9.70;99.90;;;;;;5093240;28;20044;-62
2023/12/21 08:42:02;;;;;;;6.13;1.77;;;9.70;99.90;;;;;;5092619;28;20048;-61
2023/12/21 08:44:28;;;;;;;6.70;1.30;;;9.80;99.90;;;;;;5092879;28;20133;-61
2023/12/21 08:46:54;;;;;;;5.22;1.40;;;9.80;99.90;;;;;;5093359;28;20044;-61
2023/12/21 08:49:20;;;;;;;13.67;2.50;;;9.80;99.90;;;;;;5093311;28;20431;-63
2023/12/21 08:51:45;;;;;;;8.77;0.97;;;9.80;99.90;;;;;;5093445;28;20379;-61
2023/12/21 08:54:11;;;;;;;11.03;1.40;;;9.90;99.90;;;;;;5093564;28;20395;-62
2023/12/21 08:56:46;;;;;;;7.70;1.43;;;9.90;99.90;;;;;;5093188;28;20110;-62
2023/12/21 08:59:12;;;;;;;10.10;1.50;;;9.90;99.90;;;;;;5093232;28;20084;-63
2023/12/21 09:01:38;;;;;;;9.65;1.40;;;9.90;99.90;;;;;;5093237;28;20471;-62
2023/12/21 09:04:04;;;;;;;7.80;1.67;;;9.90;99.90;;;;;;5093140;28;20040;-63
2023/12/21 09:06:31;;;;;;;9.80;1.52;;;10.00;99.90;;;;;;5093181;28;20324;-62
2023/12/21 09:08:57;;;;;;;6.78;1.10;;;10.00;99.90;;;;;;5093655;28;20165;-65
2023/12/21 09:11:23;;;;;;;6.75;1.17;;;10.00;99.90;;;;;;5092521;28;20063;-61
2023/12/21 09:13:49;;;;;;;7.85;1.38;;;10.10;99.90;;;;;;5093269;28;20056;-62
2023/12/21 09:16:17;;;;;;;7.53;1.20;;;10.10;99.90;;;;;;5093200;28;20047;-62
2023/12/21 09:18:47;;;;;;;11.52;1.95;;;10.10;99.90;;;;;;5093123;28;20062;-63
2023/12/21 09:21:13;;;;;;;8.63;1.35;;;10.10;99.90;;;;;;5094731;28;20483;-63
2023/12/21 09:23:41;;;;;;;7.55;2.17;;;10.10;99.90;;;;;;5097332;28;20395;-62
2023/12/21 09:26:08;;;;;;;7.97;1.65;;;10.10;99.90;;;;;;5095708;28;20044;-61
2023/12/21 09:28:37;;;;;;;9.50;1.63;;;10.10;99.90;;;;;;5095773;28;20099;-64
2023/12/21 09:31:04;;;;;;;9.77;1.70;;;10.10;99.90;;;;;;5096791;28;20073;-62
2023/12/21 09:33:34;;;;;;;;;;;10.20;99.90;;;;;;5096955;28;20055;-61
2023/12/21 09:36:00;;;;;;;6.70;0.95;;;10.20;99.90;;;;;;5096622;28;19923;-64
2023/12/21 09:38:26;;;;;;;;;;;10.20;99.90;;;;;;5096924;28;20082;-63
2023/12/21 09:40:52;;;;;;;6.97;0.80;;;10.20;99.90;;;;;;5096480;28;20019;-61
2023/12/21 09:43:18;;;;;;;11.17;2.10;;;10.20;99.90;;;;;;5096440;28;20438;-61
2023/12/21 09:45:48;;;;;;;6.38;1.30;;;10.20;99.90;;;;;;5096312;28;20044;-61
2023/12/21 09:48:15;;;;;;;10.18;1.77;;;10.30;99.90;;;;;;5096245;28;20044;-61
2023/12/21 09:50:45;;;;;;;4.90;0.90;;;10.30;99.90;;;;;;5096302;28;20109;-62
2023/12/21 09:53:13;;;;;;;7.50;0.90;;;10.30;99.90;;;;;;5096231;28;20153;-60
2023/12/21 09:55:43;;;;;;;5.07;1.25;;;10.30;99.90;;;;;;5095196;28;20051;-59
2023/12/21 09:58:12;;;;;;;6.75;1.20;;;10.30;99.90;;;;;;5096046;28;20047;-60
2023/12/21 10:00:38;;;;;;;4.43;0.60;;;10.30;99.90;;;;;;5094822;28;20380;-61
2023/12/21 10:03:05;;;;;;;4.97;1.30;;;10.40;99.90;;;;;;5094690;28;20052;-62
2023/12/21 10:05:32;;;;;;;8.55;1.70;;;10.40;99.90;;;;;;5094910;28;20048;-60
2023/12/21 10:07:58;;;;;;;8.13;1.25;;;10.40;99.90;;;;;;5095976;28;20044;-61
2023/12/21 10:10:24;;;;;;;8.75;0.95;;;10.40;99.90;;;;;;5095956;28;20487;-61
2023/12/21 10:12:50;;;;;;;4.97;0.93;;;10.40;99.90;;;;;;5095762;28;20501;-61
2023/12/21 10:15:19;;;;;;;10.37;1.20;;;10.40;99.90;;;;;;5095723;28;20048;-59
2023/12/21 10:17:45;;;;;;;6.63;0.93;;;10.40;99.90;;;;;;5094739;28;20463;-59
2023/12/21 10:20:12;;;;;;;9.57;1.00;;;10.40;99.90;;;;;;5095439;28;20495;-63
2023/12/21 10:22:42;;;;;;;8.13;1.95;;;10.40;99.90;;;;;;5095737;28;20134;-61
2023/12/21 10:25:09;;;;;;;5.10;0.88;;;10.40;99.90;;;;;;5095437;28;20384;-61
2023/12/21 10:27:36;;;;;;;13.43;1.77;;;10.50;99.90;;;;;;5095554;28;20460;-62
2023/12/21 10:30:03;;;;;;;10.80;1.33;;;10.50;99.90;;;;;;5095311;28;20040;-62
2023/12/21 10:32:29;;;;;;;8.27;1.20;;;10.50;99.90;;;;;;5094042;28;20040;-63
2023/12/21 10:34:58;;;;;;;8.90;1.30;;;10.50;99.90;;;;;;5094405;28;20094;-60
2023/12/21 10:37:24;;;;;;;9.75;1.70;;;10.60;99.90;;;;;;5095604;28;20048;-61
2023/12/21 10:39:51;;;;;;;10.30;1.33;;;10.60;99.90;;;;;;5095227;28;20097;-62
2023/12/21 10:42:17;;;;;;;4.93;1.13;;;10.60;99.90;;;;;;5095339;28;20051;-60
2023/12/21 10:44:47;;;;;;;5.75;1.10;;;10.50;99.90;;;;;;5095125;28;20051;-63
2023/12/21 10:47:15;;;;;;;13.32;1.00;;;10.50;99.90;;;;;;5095181;28;20052;-62
2023/12/21 10:49:42;;;;;;;9.88;1.63;;;10.50;99.90;;;;;;5094713;28;20036;-62
2023/12/21 10:52:11;;;;;;;8.27;1.75;;;10.50;99.90;;;;;;5095141;28;20055;-59
2023/12/21 10:54:38;;;;;;;5.88;1.10;;;10.60;99.90;;;;;;5094849;28;20040;-60
2023/12/21 10:57:05;;;;;;;9.05;1.35;;;10.60;99.90;;;;;;5094823;28;20592;-61
2023/12/21 10:59:32;;;;;;;9.50;1.25;;;10.60;99.90;;;;;;5094954;28;20051;-58
2023/12/21 11:01:59;;;;;;;6.70;1.17;;;10.60;99.90;;;;;;5095329;28;20376;-60
2023/12/21 11:04:26;;;;;;;;;;;10.70;99.90;;;;;;5095234;28;20105;-61
2023/12/21 11:06:52;;;;;;;12.38;1.75;;;10.60;99.90;;;;;;5094737;28;19926;-59
2023/12/21 11:09:19;;;;;;;5.55;0.95;;;10.70;99.90;;;;;;5094767;28;20043;-61
2023/12/21 11:11:48;;;;;;;12.32;1.58;;;10.60;99.90;;;;;;5094796;28;20043;-60
2023/12/21 11:14:15;;;;;;;7.80;1.50;;;10.60;99.90;;;;;;5093497;28;20102;-59
2023/12/21 11:16:42;;;;;;;7.75;1.55;;;10.50;99.90;;;;;;5094320;28;20491;-58
2023/12/21 11:19:11;;;;;;;10.40;1.92;;;10.50;99.90;;;;;;5094979;28;20128;-56
2023/12/21 11:21:39;;;;;;;6.22;1.00;;;10.50;99.90;;;;;;5094198;28;20120;-60
2023/12/21 11:24:05;;;;;;;13.88;1.50;;;10.50;99.90;;;;;;5094482;28;20093;-58
2023/12/21 11:26:31;;;;;;;7.85;1.60;;;10.50;99.90;;;;;;5094173;28;20487;-59
2023/12/21 11:29:07;;;;;;;8.27;1.25;;;10.50;99.90;;;;;;5093558;28;20059;-57
2023/12/21 11:31:40;;;;;;;12.43;1.70;;;10.50;99.90;;;;;;5094357;28;20060;-56
2023/12/21 11:34:19;;;;;;;7.93;1.00;;;10.60;99.90;;;;;;5094439;28;20048;-57
2023/12/21 11:36:45;;;;;;;11.30;1.50;;;10.60;99.90;;;;;;5092854;28;20100;-58
2023/12/21 11:39:18;;;;;;;6.82;1.08;;;10.60;99.90;;;;;;5094224;28;20043;-58
2023/12/21 11:41:58;;;;;;;9.63;1.38;;;10.60;99.90;;;;;;5094172;28;20051;-58
2023/12/21 11:44:33;;;;;;;7.38;1.00;;;10.60;99.90;;;;;;5092767;28;20052;-57
2023/12/21 11:47:02;;;;;;;8.30;1.92;;;10.70;99.90;;;;;;5092961;28;20044;-57
2023/12/21 11:49:29;;;;;;;8.98;1.17;;;10.70;99.90;;;;;;5093131;28;20044;-57
2023/12/21 11:51:55;;;;;;;14.50;1.98;;;10.70;99.90;;;;;;5094092;28;20047;-57
2023/12/21 11:54:22;;;;;;;8.77;1.58;;;10.70;99.90;;;;;;5093946;28;20131;-57
2023/12/21 11:56:55;;;;;;;9.40;2.13;;;10.70;99.90;;;;;;5094133;28;20118;-56
2023/12/21 11:59:27;;;;;;;6.35;1.38;;;10.70;99.90;;;;;;5092573;28;20043;-56
2023/12/21 12:01:53;;;;;;;10.68;1.75;;;10.70;99.90;;;;;;5093812;28;20055;-56
2023/12/21 12:04:19;;;;;;;13.37;1.77;;;10.70;99.90;;;;;;5094232;28;20126;-57
2023/12/21 12:06:46;;;;;;;8.30;1.40;;;10.80;99.90;;;;;;5093948;28;20386;-56
2023/12/21 12:09:12;;;;;;;9.10;2.03;;;10.80;99.90;;;;;;5093772;28;20051;-56
2023/12/21 12:11:39;;;;;;;12.27;1.90;;;10.80;99.90;;;;;;5093839;28;20406;-55
2023/12/21 12:14:05;;;;;;;12.50;1.48;;;10.80;99.90;;;;;;5092440;28;20051;-55
2023/12/21 12:16:34;;;;;;;16.80;2.53;;;10.80;99.90;;;;;;5093502;28;20040;-55
2023/12/21 12:19:00;;;;;;;15.18;1.88;;;10.80;99.90;;;;;;5093780;28;20044;-57
2023/12/21 12:21:26;;;;;;;9.83;2.07;;;10.80;99.90;;;;;;5093320;28;20055;-55
2023/12/21 12:23:53;;;;;;;12.60;1.57;;;10.80;99.90;;;;;;5092321;28;20105;-56
2023/12/21 12:26:18;;;;;;;9.43;1.33;;;10.80;99.90;;;;;;5093720;28;20055;-55
2023/12/21 12:28:47;;;;;;;14.30;1.63;;;10.80;99.90;;;;;;5093746;28;20032;-56
2023/12/21 12:31:13;;;;;;;12.00;1.85;;;10.80;99.90;;;;;;5093382;28;20572;-54
2023/12/21 12:33:39;;;;;;;3.90;0.32;;;10.80;99.90;;;;;;5094007;28;20048;-53
2023/12/21 12:36:07;;;;;;;3.88;0.50;;;10.50;99.90;;;;;;5093535;28;20048;-53
2023/12/21 12:38:35;;;;;;;3.15;0.47;;;9.90;99.90;;;;;;5092540;28;20055;-56
2023/12/21 12:41:02;;;;;;;5.75;0.70;;;9.40;99.90;;;;;;5093498;28;20054;-54
2023/12/21 12:43:34;;;;;;;6.47;0.90;;;8.90;99.90;;;;;;5093508;28;20052;-52
2023/12/21 12:46:00;;;;;;;6.78;0.88;;;8.70;99.90;;;;;;5093991;28;20048;-55
2023/12/21 12:48:26;;;;;;;7.28;1.00;;;8.50;99.90;;;;;;5093600;28;20044;-54
2023/12/21 12:50:55;;;;;;;8.20;1.23;;;8.30;99.90;;;;;;5093576;28;20509;-54